createdAt,value
2023-04-16T00:01:43.836Z,7.65
2023-04-16T00:06:44.847Z,7.56
2023-04-16T00:11:48.562Z,7.58
2023-04-16T00:16:41.475Z,7.56
2023-04-16T00:21:43.517Z,7.60
2023-04-16T00:26:45.392Z,7.52
2023-04-16T00:31:36.966Z,7.46
2023-04-16T00:36:38.558Z,7.36
2023-04-16T00:41:44.332Z,7.35
2023-04-16T00:46:35.756Z,7.37
2023-04-16T00:51:35.508Z,7.40
2023-04-16T00:56:32.271Z,7.35
2023-04-16T01:01:26.135Z,7.26
2023-04-16T01:06:20.039Z,7.21
2023-04-16T01:11:14.589Z,7.08
2023-04-16T01:16:14.244Z,7.19
2023-04-16T01:21:09.230Z,7.11
2023-04-16T01:26:03.218Z,7.18
2023-04-16T01:30:53.513Z,7.17
2023-04-16T01:36:14.130Z,7.10
2023-04-16T01:41:17.003Z,7.20
2023-04-16T01:46:15.516Z,7.22
2023-04-16T01:51:16.048Z,7.16
2023-04-16T01:56:21.256Z,7.20
2023-04-16T02:01:14.705Z,7.24
2023-04-16T02:06:06.331Z,7.17
2023-04-16T02:11:14.244Z,7.21
2023-04-16T02:16:13.062Z,7.20
2023-04-16T02:21:10.769Z,7.14
2023-04-16T02:26:06.782Z,7.09
2023-04-16T02:30:59.613Z,7.11
2023-04-16T02:35:58.829Z,7.12
2023-04-16T02:40:52.424Z,7.18
2023-04-16T02:45:43.893Z,7.13
2023-04-16T02:50:39.367Z,7.09
2023-04-16T02:55:35.806Z,7.03
2023-04-16T03:00:30.994Z,7.03
2023-04-16T03:05:22.259Z,6.92
2023-04-16T03:10:29.675Z,6.97
2023-04-16T03:15:23.490Z,7.00
2023-04-16T03:20:15.314Z,7.09
2023-04-16T03:25:12.758Z,7.02
2023-04-16T03:30:10.846Z,7.02
2023-04-16T03:35:09.669Z,6.99
2023-04-16T03:40:02.133Z,6.98
2023-04-16T03:44:54.097Z,7.07
2023-04-16T03:49:46.850Z,7.12
2023-04-16T03:54:45.366Z,7.04
2023-04-16T03:59:52.536Z,7.04
2023-04-16T04:04:44.336Z,6.95
2023-04-16T04:09:38.267Z,7.00
2023-04-16T04:14:45.625Z,6.94
2023-04-16T04:19:42.292Z,6.96
2023-04-16T04:24:39.411Z,6.91
2023-04-16T04:29:30.524Z,6.97
2023-04-16T04:34:26.373Z,6.96
2023-04-16T04:39:24.668Z,6.97
2023-04-16T04:44:16.119Z,6.90
2023-04-16T04:49:07.996Z,6.87
2023-04-16T04:54:03.834Z,6.93
2023-04-16T04:58:54.904Z,6.89
2023-04-16T05:03:47.861Z,6.88
2023-04-16T05:08:42.903Z,6.91
2023-04-16T05:13:41.777Z,6.95
2023-04-16T05:18:45.824Z,6.90
2023-04-16T05:23:36.230Z,6.92
2023-04-16T05:28:27.760Z,6.93
2023-04-16T05:33:21.329Z,6.99
2023-04-16T05:38:14.264Z,6.98
2023-04-16T05:43:06.845Z,6.96
2023-04-16T05:48:27.148Z,6.99
2023-04-16T05:53:40.822Z,7.07
2023-04-16T05:58:40.627Z,7.04
2023-04-16T06:03:45.188Z,6.99
2023-04-16T06:08:41.921Z,7.01
2023-04-16T06:13:40.478Z,6.95
2023-04-16T06:18:33.559Z,7.06
2023-04-16T06:23:32.459Z,7.02
2023-04-16T06:28:28.764Z,7.01
2023-04-16T06:33:22.716Z,7.02
2023-04-16T06:38:20.324Z,7.12
2023-04-16T06:43:27.127Z,7.12
2023-04-16T06:48:30.760Z,7.12
2023-04-16T06:53:24.953Z,7.05
2023-04-16T06:58:25.714Z,7.06
2023-04-16T07:03:18.927Z,7.10
2023-04-16T07:08:16.494Z,7.06
2023-04-16T07:13:07.020Z,7.07
2023-04-16T07:18:01.999Z,7.10
2023-04-16T07:22:53.711Z,7.12
2023-04-16T07:27:52.306Z,7.17
2023-04-16T07:32:49.311Z,7.17
2023-04-16T07:37:42.268Z,7.19
2023-04-16T07:42:36.072Z,7.34
2023-04-16T07:47:34.782Z,7.32
2023-04-16T07:52:27.902Z,7.31
2023-04-16T07:57:20.935Z,7.31
2023-04-16T08:02:15.649Z,7.34
2023-04-16T08:07:09.459Z,7.24
2023-04-16T08:12:08.321Z,7.33
2023-04-16T08:17:06.782Z,7.23
2023-04-16T08:21:59.995Z,7.28
2023-04-16T08:27:15.461Z,7.22
2023-04-16T08:32:22.044Z,7.41
2023-04-16T08:37:14.339Z,7.47
2023-04-16T08:42:09.275Z,7.39
2023-04-16T08:47:02.596Z,7.54
2023-04-16T08:52:00.934Z,7.51
2023-04-16T08:56:57.858Z,7.68
2023-04-16T09:01:53.279Z,7.78
2023-04-16T09:06:48.340Z,7.75
2023-04-16T09:11:42.853Z,7.64
2023-04-16T09:16:40.171Z,7.71
2023-04-16T09:21:39.970Z,7.71
2023-04-16T09:26:45.474Z,7.80
2023-04-16T09:31:44.612Z,7.75
2023-04-16T09:36:40.945Z,7.78
2023-04-16T09:41:34.953Z,7.79
2023-04-16T09:46:29.018Z,7.84
2023-04-16T09:51:20.355Z,7.86
2023-04-16T09:56:17.683Z,7.93
2023-04-16T10:01:15.763Z,7.93
2023-04-16T10:06:13.076Z,7.96
2023-04-16T10:11:19.891Z,7.94
2023-04-16T10:16:16.906Z,7.91
2023-04-16T10:21:12.286Z,8.01
2023-04-16T10:26:20.398Z,8.15
2023-04-16T10:31:20.058Z,8.12
2023-04-16T10:36:17.756Z,8.08
2023-04-16T10:41:13.032Z,8.14
2023-04-16T10:46:29.153Z,8.15
2023-04-16T10:51:34.219Z,8.12
2023-04-16T10:56:31.330Z,8.11
2023-04-16T11:01:35.675Z,8.16
2023-04-16T11:06:32.626Z,8.21
2023-04-16T11:11:23.780Z,8.45
2023-04-16T11:16:14.937Z,8.48
2023-04-16T11:21:13.006Z,8.47
2023-04-16T11:26:09.851Z,8.50
2023-04-16T11:31:04.577Z,8.47
2023-04-16T11:41:01.788Z,8.47
2023-04-16T11:46:13.261Z,8.59
2023-04-16T11:51:09.189Z,8.63
2023-04-16T11:56:02.525Z,8.71
2023-04-16T12:01:00.403Z,8.73
2023-04-16T12:05:53.199Z,8.75
2023-04-16T12:11:01.795Z,8.85
2023-04-16T12:15:57.483Z,8.88
2023-04-16T12:20:51.704Z,8.99
2023-04-16T12:25:48.790Z,9.03
2023-04-16T12:30:54.118Z,9.02
2023-04-16T12:35:49.237Z,8.98
2023-04-16T12:40:40.572Z,8.98
2023-04-16T12:45:40.098Z,8.98
2023-04-16T12:50:32.909Z,8.97
2023-04-16T12:55:32.076Z,9.00
2023-04-16T13:00:24.597Z,9.12
2023-04-16T13:05:20.583Z,9.16
2023-04-16T13:10:19.611Z,9.30
2023-04-16T13:15:18.265Z,9.38
2023-04-16T13:20:11.773Z,9.36
2023-04-16T13:25:10.806Z,9.47
2023-04-16T13:35:48.004Z,9.50
2023-04-16T13:40:50.195Z,9.51
2023-04-16T13:45:49.714Z,9.63
2023-04-16T13:50:41.673Z,9.76
2023-04-16T13:55:53.018Z,9.78
2023-04-16T14:00:52.576Z,9.61
2023-04-16T14:05:57.005Z,9.69
2023-04-16T14:11:09.878Z,9.63
2023-04-16T14:16:00.864Z,9.74
2023-04-16T14:20:54.019Z,9.81
2023-04-16T14:25:51.936Z,9.85
2023-04-16T14:30:59.709Z,9.69
2023-04-16T14:35:52.675Z,9.70
2023-04-16T14:40:52.881Z,9.68
2023-04-16T14:45:51.403Z,9.66
2023-04-16T14:50:49.141Z,9.64
2023-04-16T14:55:50.328Z,9.50
2023-04-16T15:00:41.875Z,9.41
2023-04-16T15:05:42.612Z,9.43
2023-04-16T15:10:35.554Z,9.44
2023-04-16T15:15:26.764Z,9.36
2023-04-16T15:20:20.253Z,9.41
2023-04-16T15:25:20.431Z,9.39
2023-04-16T15:30:13.531Z,9.34
2023-04-16T15:35:11.034Z,9.37
2023-04-16T15:40:04.079Z,9.35
2023-04-16T15:45:01.040Z,9.33
2023-04-16T15:49:51.858Z,9.23
2023-04-16T15:54:45.095Z,9.34
2023-04-16T15:59:41.008Z,9.26
2023-04-16T16:04:46.085Z,9.22
2023-04-16T16:09:39.846Z,9.27
2023-04-16T16:14:30.543Z,9.20
2023-04-16T16:19:26.584Z,9.15
2023-04-16T16:24:21.739Z,9.14
2023-04-16T16:29:11.831Z,9.21
2023-04-16T16:34:01.731Z,9.21
2023-04-16T16:38:56.018Z,9.15
2023-04-16T16:43:48.300Z,9.25
2023-04-16T16:48:38.064Z,9.16
2023-04-16T16:53:27.923Z,9.15
2023-04-16T16:58:17.967Z,9.11
2023-04-16T17:03:10.407Z,9.15
2023-04-16T17:08:00.160Z,9.14
2023-04-16T17:12:53.095Z,9.13
2023-04-16T17:17:42.811Z,9.10
2023-04-16T17:22:38.256Z,9.13
2023-04-16T17:27:29.508Z,9.11
2023-04-16T17:32:19.150Z,9.03
2023-04-16T17:37:11.325Z,8.95
2023-04-16T17:42:04.210Z,8.96
2023-04-16T17:46:53.835Z,8.94
2023-04-16T17:51:44.839Z,8.93
2023-04-16T17:56:34.540Z,8.89
2023-04-16T18:01:27.769Z,8.92
2023-04-16T18:06:17.398Z,8.83
2023-04-16T18:11:09.229Z,8.86
2023-04-16T18:15:58.958Z,8.89
2023-04-16T18:20:51.201Z,8.86
2023-04-16T18:25:40.959Z,8.83
2023-04-16T18:30:30.663Z,8.79
2023-04-16T18:35:20.429Z,8.77
2023-04-16T18:40:13.721Z,8.77
2023-04-16T18:45:04.844Z,8.74
2023-04-16T18:49:54.824Z,8.76
2023-04-16T18:54:44.868Z,8.71
2023-04-16T18:59:37.058Z,8.70
2023-04-16T19:04:26.849Z,8.62
2023-04-16T19:09:19.084Z,8.57
2023-04-16T19:14:08.645Z,8.55
2023-04-16T19:19:00.946Z,8.58
2023-04-16T19:23:52.588Z,8.55
2023-04-16T19:28:42.692Z,8.47
2023-04-16T19:33:32.254Z,8.47
2023-04-16T19:38:26.761Z,8.49
2023-04-16T19:43:17.328Z,8.46
2023-04-16T19:48:08.417Z,8.46
2023-04-16T19:52:58.431Z,8.41
2023-04-16T19:57:50.738Z,8.44
2023-04-16T20:02:40.420Z,8.43
2023-04-16T20:07:30.264Z,8.43
2023-04-16T20:12:20.172Z,8.38
2023-04-16T20:17:12.411Z,8.34
2023-04-16T20:22:02.011Z,8.20
2023-04-16T20:26:51.535Z,8.05
2023-04-16T20:31:42.909Z,8.05
2023-04-16T20:36:37.043Z,7.98
2023-04-16T20:41:30.153Z,7.99
2023-04-16T20:46:24.360Z,8.04
2023-04-16T20:51:14.901Z,8.10
2023-04-16T20:56:09.250Z,8.08
2023-04-16T21:01:00.524Z,8.01
2023-04-16T21:05:50.415Z,7.97
2023-04-16T21:10:39.995Z,7.98
2023-04-16T21:15:33.918Z,7.93
2023-04-16T21:20:25.863Z,7.89
2023-04-16T21:25:16.673Z,7.97
2023-04-16T21:30:06.752Z,7.89
2023-04-16T21:34:59.156Z,7.88
2023-04-16T21:39:48.735Z,7.81
2023-04-16T21:44:38.370Z,7.74
2023-04-16T21:49:27.997Z,7.73
2023-04-16T21:54:20.897Z,7.73
2023-04-16T21:59:10.833Z,7.77
2023-04-16T22:04:02.256Z,7.73
2023-04-16T22:08:53.957Z,7.72
2023-04-16T22:13:47.842Z,7.66
2023-04-16T22:18:37.736Z,7.67
2023-04-16T22:23:28.417Z,7.52
2023-04-16T22:28:18.001Z,7.69
2023-04-16T22:33:10.221Z,7.69
2023-04-16T22:37:59.818Z,7.70
2023-04-16T22:42:50.517Z,7.68
2023-04-16T22:47:40.419Z,7.66
2023-04-16T22:52:32.636Z,7.65
2023-04-16T22:57:25.097Z,7.56
2023-04-16T23:02:15.073Z,7.60
2023-04-16T23:07:04.575Z,7.60
2023-04-16T23:11:57.554Z,7.63
2023-04-16T23:16:47.342Z,7.65
2023-04-16T23:21:39.286Z,7.69
2023-04-16T23:26:28.955Z,7.70
2023-04-16T23:31:21.161Z,7.73
2023-04-16T23:36:12.747Z,7.74
2023-04-16T23:41:02.315Z,7.82
2023-04-16T23:45:51.971Z,7.85
2023-04-16T23:50:44.165Z,7.79
2023-04-16T23:55:33.984Z,7.72
